AirNav   Air Wisconsin Up To $57,000 Bonus
 
 366 users online  

LS58 Christus Ochsner Lake Area Hospital Heliport
Lake Charles, Louisiana, USA

GOING TO LAKE CHARLES?


FAA INFORMATION EFFECTIVE 08 SEPTEMBER 2022

Location

FAA Identifier: LS58
Lat/Long: 30-10-49.1700N 093-15-03.5600W
30-10.819500N 093-15.059333W
30.1803250,-93.2509889
(estimated)
Elevation: 16 ft. / 5 m (estimated)
Variation: 05E (1985)
Time zone: UTC -5 (UTC -6 during Standard Time)
Zip code: 70605

Heliport Operations

Heliport use: Private use, MEDICAL.
Activation date: 03/1990
Control tower: no
ARTCC: HOUSTON CENTER
FSS: DE RIDDER FLIGHT SERVICE STATION
Attendance: UNATNDD
Wind indicator: yes
Segmented circle: no
Lights: FOR PERIMETER LGTS CALL 318-474-6370.

Heliport Communications

WX ASOS at LCH (4 nm SE): PHONE 337-477-3371
WX AWOS-3 at CWF (6 nm E): 120.0 (337-436-3452)
WX AWOS-3PT at UXL (7 nm SW): 118.175 (337-558-5321)
WX AWOS-3PT at 5R8 (19 nm NW): 121.2 (337-786-1518)

Nearby radio navigation aids

VOR radial/distance  VOR name  Freq  Var
LCHr280/7.9LAKE CHARLES VORTAC113.4007E

 
NDB name  Hdg/Dist  Freq  Var  ID
MOSSY197/8.141804ECW -.-. .--
SULPHUR093/8.927804EAUR .- ..- .-.
DE RIDDER169/34.638504EDXB -.. -..- -...

Heliport Services

Runway Information

Helipad H1

Dimensions: 40 x 40 ft. / 12 x 12 m
Surface: concrete
Runway edge lights: PERI
Latitude: 30-10.819500N
Longitude: 093-15.059333W
Elevation: 16.0 ft.
Traffic pattern: leftleft

Heliport Ownership and Management from official FAA records

Ownership: Privately-owned
DBA CHRISTUS LAKE AREA HOSPITAL
Owner: CHRISTUS HEALTH SW LA
4200 NELSON RD
LAKE CHARLES, LA 70605
Phone 337-474-6370
Manager: ROBERT ANTHONY
4200 NELSON RD
LAKE CHARLES, LA 70605
Phone (337) 491-7525
LEE WILLEFORD

Additional Remarks

FOR CD CTC LAKE CHARLES APCH AT 337-480-3103, WHEN APCH CLSD CTC HOUSTON ARTCC AT 281-230-5622.

Instrument Procedures

There are no published instrument procedures at LS58.

Some nearby airports with instrument procedures:

KLCH - Lake Charles Regional Airport (4 nm SE)
KCWF - Chennault International Airport (6 nm E)
KUXL - Southland Field Airport (7 nm SW)
5R8 - De Quincy Industrial Airpark (19 nm NW)
6R1 - Welsh Airport (22 nm E)
 
Loc | Ops | Rwys | IFR | FBO | Links
Com | Nav | Svcs | Stats | Notes
Area around LS58 (Christus Ochsner Lake Area Hospital Heliport)
 
Road maps at: MapQuest Bing Google
 
Aerial photo
No photo
 
Sectional chart

 
Airport distance calculator
Flying to Christus Ochsner Lake Area Hospital Heliport? Find the distance to fly.

From to LS58

Sunrise and sunset
Times for 02-Oct-2022
 Local
(UTC-5)
 Zulu
(UTC)
Morning civil twilight06:4411:44
Sunrise07:0812:08
Sunset18:5723:57
Evening civil twilight19:2100:21

Current date and time
Zulu (UTC)  02-Oct-2022 09:58:04
Local (UTC-5)  02-Oct-2022 04:58:04
 
METAR
KLCH 
3nm SE 
020953Z AUTO 03003KT 10SM CLR 14/08 A3006 RMK AO2 SLP187 T01390083
KCWF 
6nm NE 
020935Z AUTO 03004KT 10SM CLR 14/09 A3006 RMK AO2 T01430085
KUXL 
7nm SW 
020935Z AUTO 00000KT 10SM CLR 12/08 A3007 RMK AO2 T01210078
K5R8 
19nm NW 
020930Z AUTO 00000KT 10SM CLR 10/08 A3008 RMK AO2 T00950079
TAF
KLCH 
3nm SE 
020520Z 0206/0306 VRB04KT P6SM SKC FM021500 04007KT P6SM SKC FM030100 VRB03KT P6SM SKC
NOTAMs
Click for the latest NOTAMs
NOTAMs are issued by the DoD/FAA and will open in a separate window not controlled by AirNav.

 

 
 

Would you like to see your business listed on this page?

 If your business provides an interesting product or service to pilots, flight crews, aircraft, or users of the Christus Ochsner Lake Area Hospital Heliport, you should consider listing it here.  To start the listing process, click on the button below
 
Add a business
 

Other Pages about Christus Ochsner Lake Area Hospital Heliport

Update a link
 
Copyright © AirNav, LLC. All rights reserved. Privacy Policy  Contact